Ron Hunter — WDH4137 — position and weather

sailwx.info

Track history (hours):
 
Tides and Currents Weather Stations Pressure Air Temp Water Temp Dewpoint Dewpoint Depression Visibility Wind Speed Wind Dir Waves Ship Positions

Ron Hunter

Owner: HF Marine, LLC, Nashville, TN. More information available from US FCC via Universal Licensing System and Coast Guard Vessel Documentation Center.

Last reported at 2017-Oct-20 16:37 UTC. Time now 2017-Oct-22 17:19 UTC.
Position N 31°59' W 091°06'.

Length 48 m; draft 3 m.

Type: Towing. MMSI: 367614550.

Date/timePositionNaut miles runAvg speedWind from/ knotsBaromVisibWave heightAir tempDewpointWater temp
2017-Oct-20 16:37N 31°59' W 091°06'1 7.7
2017-Oct-20 16:29N 31°60' W 091°05'6 6.8
2017-Oct-20 15:36N 32°06' W 091°06'1 7.9
2017-Oct-20 15:28N 32°07' W 091°07'1 2.7
2017-Oct-20 15:00N 32°08' W 091°06'6 5.9
2017-Oct-20 14:00N 32°11' W 090°60'4 8.2
2017-Oct-20 13:30N 32°15' W 090°59'4 8.0
2017-Oct-20 13:00N 32°18' W 090°55'3 5.8
2017-Oct-20 12:30N 32°21' W 090°55'4 7.6
2017-Oct-20 12:00N 32°21' W 090°60'4 7.6
2017-Oct-20 11:30N 32°25' W 090°60'4 8.1
2017-Oct-20 11:01N 32°27' W 091°04'4 7.5
2017-Oct-20 10:30N 32°30' W 091°07'4 8.1
2017-Oct-20 10:00N 32°34' W 091°06'5 8.2
2017-Oct-20 09:27N 32°37' W 091°09'  
Track history (hours):
 
Tides and Currents Weather Stations Pressure Air Temp Water Temp Dewpoint Dewpoint Depression Visibility Wind Speed Wind Dir Waves Ship Positions

Ron Hunter

Owner: HF Marine, LLC, Nashville, TN. More information available from US FCC via Universal Licensing System and Coast Guard Vessel Documentation Center.

Last reported at 2017-Oct-20 16:37 UTC. Time now 2017-Oct-22 17:19 UTC.
Position N 31°59' W 091°06'.

Length 48 m; draft 3 m.

Type: Towing. MMSI: 367614550.

Date/timePositionNaut miles runAvg speedWind from/ knotsBaromVisibWave heightAir tempDewpointWater temp
2017-Oct-20 16:37N 31°59' W 091°06'1 7.7
2017-Oct-20 16:29N 31°60' W 091°05'6 6.8
2017-Oct-20 15:36N 32°06' W 091°06'1 7.9
2017-Oct-20 15:28N 32°07' W 091°07'1 2.7
2017-Oct-20 15:00N 32°08' W 091°06'6 5.9
2017-Oct-20 14:00N 32°11' W 090°60'4 8.2
2017-Oct-20 13:30N 32°15' W 090°59'4 8.0
2017-Oct-20 13:00N 32°18' W 090°55'3 5.8
2017-Oct-20 12:30N 32°21' W 090°55'4 7.6
2017-Oct-20 12:00N 32°21' W 090°60'4 7.6
2017-Oct-20 11:30N 32°25' W 090°60'4 8.1
2017-Oct-20 11:01N 32°27' W 091°04'4 7.5
2017-Oct-20 10:30N 32°30' W 091°07'4 8.1
2017-Oct-20 10:00N 32°34' W 091°06'5 8.2
2017-Oct-20 09:27N 32°37' W 091°09'  

Dump ship's entire track history